Time;durP1;ratioP1;P1;durP2;ratioP2;P2;SDS_P1;SDS_P2;PMS_P1;PMS_P2;Temp;Humidity;BMP_temperature;BMP_pressure;BME280_temperature;BME280_humidity;BME280_pressure;Samples;Min_cycle;Max_cycle;Signal;HPM_P1;HPM_P2
2023/08/12 00:02:16;;;;;;;4.67;3.47;;;20.60;99.90;;;;;;4991355;28;20285;-52
2023/08/12 00:04:43;;;;;;;5.30;4.90;;;20.60;99.90;;;;;;4990733;28;20212;-52
2023/08/12 00:07:09;;;;;;;3.93;3.73;;;20.60;99.90;;;;;;4990615;28;20262;-52
2023/08/12 00:09:37;;;;;;;4.47;4.27;;;20.60;99.90;;;;;;4994112;28;20740;-52
2023/08/12 00:12:04;;;;;;;5.00;4.70;;;20.60;99.90;;;;;;5005128;28;20310;-51
2023/08/12 00:14:31;;;;;;;5.00;4.77;;;20.60;99.90;;;;;;5007281;28;20261;-52
2023/08/12 00:16:59;;;;;;;5.00;4.70;;;20.60;99.90;;;;;;5006717;28;20210;-52
2023/08/12 00:19:27;;;;;;;5.07;4.77;;;20.60;99.90;;;;;;5009723;28;20243;-52
2023/08/12 00:21:53;;;;;;;5.17;4.87;;;20.50;99.90;;;;;;5006782;28;20253;-52
2023/08/12 00:24:20;;;;;;;6.23;5.33;;;20.50;99.90;;;;;;4990426;28;20659;-52
2023/08/12 00:26:47;;;;;;;5.57;5.27;;;20.40;99.90;;;;;;4993047;28;20245;-52
2023/08/12 00:29:14;;;;;;;5.47;5.20;;;20.30;99.90;;;;;;4999020;28;20671;-52
2023/08/12 00:31:41;;;;;;;6.40;5.80;;;20.30;99.90;;;;;;5000974;28;20203;-52
2023/08/12 00:34:09;;;;;;;6.27;5.77;;;20.20;99.90;;;;;;5000804;28;20220;-52
2023/08/12 00:36:37;;;;;;;6.03;5.50;;;20.10;99.90;;;;;;4990879;28;20258;-52
2023/08/12 00:39:04;;;;;;;5.73;5.23;;;20.10;99.90;;;;;;4996918;28;20224;-52
2023/08/12 00:41:31;;;;;;;4.93;4.73;;;20.10;99.90;;;;;;5005794;28;20610;-52
2023/08/12 00:43:58;;;;;;;5.57;5.17;;;20.10;99.90;;;;;;5010185;28;20230;-52
2023/08/12 00:46:25;;;;;;;4.90;4.57;;;20.10;99.90;;;;;;5004033;28;20238;-53
2023/08/12 00:48:52;;;;;;;5.60;5.10;;;20.20;99.90;;;;;;4998797;28;20224;-52
2023/08/12 00:51:21;;;;;;;5.23;4.93;;;20.30;99.90;;;;;;5006451;28;20203;-52
2023/08/12 00:53:48;;;;;;;5.20;4.73;;;20.40;99.90;;;;;;5002646;28;20305;-52
2023/08/12 00:56:15;;;;;;;4.10;3.90;;;20.30;99.90;;;;;;5008155;28;20203;-52
2023/08/12 00:58:43;;;;;;;4.53;4.23;;;20.30;99.90;;;;;;5010306;28;20215;-51
2023/08/12 01:01:11;;;;;;;4.43;4.23;;;20.30;99.90;;;;;;5010523;28;20266;-52
2023/08/12 01:03:38;;;;;;;4.33;4.13;;;20.30;99.90;;;;;;5010017;28;20207;-52
2023/08/12 01:06:05;;;;;;;4.00;3.80;;;20.20;99.90;;;;;;5004126;28;20207;-52
2023/08/12 01:08:34;;;;;;;4.83;4.53;;;20.20;99.90;;;;;;4996593;28;20898;-51
2023/08/12 01:11:07;;;;;;;5.67;4.83;;;20.20;99.90;;;;;;4993860;28;20231;-52
2023/08/12 01:13:42;;;;;;;7.03;6.33;;;20.10;99.90;;;;;;5009275;28;20311;-52
2023/08/12 01:16:10;;;;;;;8.27;7.57;;;20.00;99.90;;;;;;4998418;28;20292;-52
2023/08/12 01:18:38;;;;;;;6.07;5.77;;;19.80;99.90;;;;;;4994067;28;20318;-52
2023/08/12 01:21:08;;;;;;;5.80;5.50;;;19.80;99.90;;;;;;5009525;28;20228;-52
2023/08/12 01:23:38;;;;;;;5.23;5.03;;;19.70;99.90;;;;;;5007921;28;20571;-54
2023/08/12 01:26:05;;;;;;;6.03;5.73;;;19.70;99.90;;;;;;5002007;28;20210;-52
2023/08/12 01:28:32;;;;;;;6.97;6.47;;;19.60;99.90;;;;;;5035228;22;20247;-49
2023/08/12 01:31:05;;;;;;;6.03;5.63;;;19.60;99.90;;;;;;5022032;28;20234;-49
2023/08/12 01:33:39;;;;;;;6.47;6.13;;;19.50;99.90;;;;;;5034605;28;20356;-49
2023/08/12 01:36:13;;;;;;;6.30;5.90;;;19.50;99.90;;;;;;5034917;28;20672;-50
2023/08/12 01:38:41;;;;;;;6.30;5.70;;;19.50;99.90;;;;;;5030989;28;20218;-49
2023/08/12 01:41:12;;;;;;;6.13;5.73;;;19.50;99.90;;;;;;5014941;28;20195;-49
2023/08/12 01:43:39;;;;;;;7.00;6.47;;;19.50;99.90;;;;;;5014789;28;20756;-50
2023/08/12 01:46:06;;;;;;;7.70;7.10;;;19.50;99.90;;;;;;5015015;28;20203;-49
2023/08/12 01:48:33;;;;;;;7.43;6.73;;;19.50;99.90;;;;;;5020803;28;20289;-49
2023/08/12 01:51:00;;;;;;;7.20;6.43;;;19.60;99.90;;;;;;5024731;28;20202;-49
2023/08/12 01:53:27;;;;;;;7.73;7.23;;;19.60;99.90;;;;;;5022682;28;20199;-49
2023/08/12 01:55:55;;;;;;;7.07;6.23;;;19.60;99.90;;;;;;5014892;28;20207;-49
2023/08/12 01:58:22;;;;;;;7.33;6.63;;;19.60;99.90;;;;;;5031336;28;20199;-49
2023/08/12 02:00:49;;;;;;;6.43;6.03;;;19.50;99.90;;;;;;5028713;28;20203;-50
2023/08/12 02:03:16;;;;;;;7.63;7.13;;;19.50;99.90;;;;;;5021322;28;20264;-49
2023/08/12 02:05:43;;;;;;;7.13;6.70;;;19.50;99.90;;;;;;5016738;28;20207;-49
2023/08/12 02:08:10;;;;;;;6.00;5.47;;;19.40;99.90;;;;;;5022073;28;20318;-49
2023/08/12 02:10:37;;;;;;;6.37;5.97;;;19.40;99.90;;;;;;5014665;28;20284;-49
2023/08/12 02:13:05;;;;;;;6.43;6.10;;;19.40;99.90;;;;;;5019136;28;20194;-49
2023/08/12 02:15:32;;;;;;;6.00;5.60;;;19.30;99.90;;;;;;5030792;28;20206;-49
2023/08/12 02:18:03;;;;;;;6.67;6.17;;;19.30;99.90;;;;;;5034040;28;20248;-49
2023/08/12 02:20:30;;;;;;;7.30;6.57;;;19.20;99.90;;;;;;5033973;28;20226;-50
2023/08/12 02:22:57;;;;;;;6.93;6.40;;;19.20;99.90;;;;;;5024278;28;20231;-49
2023/08/12 02:25:23;;;;;;;6.70;6.20;;;19.30;99.90;;;;;;5027407;28;20210;-49
2023/08/12 02:27:50;;;;;;;6.17;5.67;;;19.30;99.90;;;;;;5024316;28;20199;-50
2023/08/12 02:30:19;;;;;;;5.80;5.40;;;19.30;99.90;;;;;;5013923;28;20234;-49
2023/08/12 02:32:47;;;;;;;6.47;5.97;;;19.20;99.90;;;;;;5013939;28;20198;-50
2023/08/12 02:35:13;;;;;;;5.80;5.47;;;19.20;99.90;;;;;;5014240;28;20230;-49
2023/08/12 02:37:40;;;;;;;6.10;5.80;;;19.20;99.90;;;;;;5020629;28;20211;-49
2023/08/12 02:40:09;;;;;;;6.37;5.97;;;19.10;99.90;;;;;;5029489;28;20273;-49
2023/08/12 02:42:37;;;;;;;6.83;6.23;;;19.10;99.90;;;;;;5028795;28;20198;-50
2023/08/12 02:45:05;;;;;;;5.97;5.67;;;19.10;99.90;;;;;;5033645;28;20256;-50
2023/08/12 02:47:33;;;;;;;5.97;5.67;;;19.10;99.90;;;;;;5033487;28;20206;-49
2023/08/12 02:50:00;;;;;;;5.60;5.30;;;19.00;99.90;;;;;;5030359;28;20280;-49
2023/08/12 02:52:27;;;;;;;6.10;5.70;;;18.90;99.90;;;;;;5021737;28;20400;-49
2023/08/12 02:54:56;;;;;;;5.97;5.57;;;18.90;99.90;;;;;;5020324;28;20750;-49
2023/08/12 02:57:23;;;;;;;6.13;5.83;;;18.80;99.90;;;;;;5021598;28;20701;-49
2023/08/12 02:59:49;;;;;;;6.23;5.83;;;18.70;99.90;;;;;;5020093;28;20333;-50
2023/08/12 03:02:17;;;;;;;7.63;6.40;;;18.70;99.90;;;;;;5027492;28;20230;-49
2023/08/12 03:04:45;;;;;;;6.60;6.20;;;18.70;99.90;;;;;;5031347;28;20577;-49
2023/08/12 03:07:12;;;;;;;6.17;5.77;;;18.70;99.90;;;;;;5028804;28;20206;-49
2023/08/12 03:09:39;;;;;;;6.70;6.17;;;18.70;99.90;;;;;;5019944;28;20226;-49
2023/08/12 03:12:07;;;;;;;6.50;6.10;;;18.70;99.90;;;;;;5024959;28;20202;-50
2023/08/12 03:14:33;;;;;;;6.60;6.20;;;18.80;99.90;;;;;;5027102;28;20292;-49
2023/08/12 03:17:00;;;;;;;7.23;6.60;;;18.80;99.90;;;;;;5017540;28;20199;-49
2023/08/12 03:19:27;;;;;;;5.70;5.40;;;18.80;99.90;;;;;;5031665;28;20304;-48
2023/08/12 03:21:56;;;;;;;6.63;6.00;;;18.80;99.90;;;;;;5018158;28;20203;-49
2023/08/12 03:24:22;;;;;;;6.53;5.93;;;18.80;99.90;;;;;;5013832;28;20561;-49
2023/08/12 03:26:49;;;;;;;6.90;6.50;;;18.80;99.90;;;;;;5015066;28;20260;-49
2023/08/12 03:29:16;;;;;;;6.77;6.27;;;18.80;99.90;;;;;;5027535;28;20277;-49
2023/08/12 03:31:43;;;;;;;7.27;6.73;;;18.80;99.90;;;;;;5023291;28;20206;-49
2023/08/12 03:34:10;;;;;;;6.60;6.30;;;18.80;99.90;;;;;;5011515;28;20203;-50
2023/08/12 03:36:37;;;;;;;7.03;6.53;;;18.80;99.90;;;;;;5011972;28;20211;-49
2023/08/12 03:39:06;;;;;;;6.33;5.83;;;18.80;99.90;;;;;;5011938;28;20281;-49
2023/08/12 03:41:33;;;;;;;6.47;6.00;;;18.80;99.90;;;;;;5011749;28;20207;-48
2023/08/12 03:44:00;;;;;;;6.47;6.03;;;18.80;99.90;;;;;;5016021;28;20199;-49
2023/08/12 03:46:27;;;;;;;7.20;5.97;;;18.80;99.90;;;;;;5025442;28;20603;-49
2023/08/12 03:48:54;;;;;;;6.00;5.57;;;18.80;99.90;;;;;;5030013;28;20226;-49
2023/08/12 03:51:21;;;;;;;7.30;6.80;;;18.80;99.90;;;;;;5031412;28;20202;-49
2023/08/12 03:53:48;;;;;;;7.33;6.83;;;18.80;99.90;;;;;;5030610;28;20858;-49
2023/08/12 03:56:16;;;;;;;7.50;7.00;;;18.80;99.90;;;;;;5031010;28;20202;-49
2023/08/12 03:58:43;;;;;;;6.97;6.53;;;18.80;99.90;;;;;;5031289;28;20218;-49
2023/08/12 04:01:10;;;;;;;7.37;6.87;;;18.80;99.90;;;;;;5025698;28;20281;-49
2023/08/12 04:03:37;;;;;;;6.27;5.97;;;18.90;99.90;;;;;;5016827;28;20203;-50
2023/08/12 04:06:04;;;;;;;7.17;6.67;;;18.90;99.90;;;;;;5022582;28;20207;-49
2023/08/12 04:08:32;;;;;;;7.20;6.70;;;18.90;99.90;;;;;;5013089;28;20198;-50
2023/08/12 04:10:59;;;;;;;8.53;7.77;;;19.00;99.90;;;;;;5015002;28;20199;-50
2023/08/12 04:13:27;;;;;;;7.33;6.83;;;19.00;99.90;;;;;;5011160;28;20196;-50
2023/08/12 04:15:54;;;;;;;8.37;7.50;;;19.00;99.90;;;;;;5013557;28;20561;-50
2023/08/12 04:18:21;;;;;;;7.70;7.00;;;19.00;99.90;;;;;;5024787;28;20195;-49
2023/08/12 04:20:50;;;;;;;7.63;7.03;;;19.00;99.90;;;;;;5015138;28;20253;-49
2023/08/12 04:23:18;;;;;;;7.43;7.03;;;19.00;99.90;;;;;;5020873;28;20836;-50
2023/08/12 04:25:45;;;;;;;6.97;6.47;;;19.00;99.90;;;;;;5022843;28;20576;-49
2023/08/12 04:28:12;;;;;;;7.40;6.80;;;19.00;99.90;;;;;;5011300;28;20547;-50
2023/08/12 04:30:43;;;;;;;7.33;6.63;;;19.00;99.90;;;;;;5011175;28;20215;-49
2023/08/12 04:33:10;;;;;;;7.13;6.43;;;19.00;99.90;;;;;;5017088;28;20288;-50
2023/08/12 04:35:37;;;;;;;7.93;7.43;;;19.00;99.90;;;;;;5025580;28;20202;-49
2023/08/12 04:38:05;;;;;;;7.30;6.80;;;19.00;99.90;;;;;;5016543;28;20290;-50
2023/08/12 04:40:32;;;;;;;6.57;6.20;;;19.00;99.90;;;;;;5011167;28;20218;-49
2023/08/12 04:43:03;;;;;;;8.10;7.33;;;19.00;99.90;;;;;;5010970;28;20283;-49
2023/08/12 04:45:29;;;;;;;7.37;6.77;;;19.00;99.90;;;;;;5011233;28;20191;-50
2023/08/12 04:48:02;;;;;;;7.17;6.67;;;18.90;99.90;;;;;;5021842;28;20198;-49
2023/08/12 04:50:30;;;;;;;6.67;6.10;;;18.90;99.90;;;;;;5024527;28;20218;-49
2023/08/12 04:53:01;;;;;;;7.07;6.40;;;18.80;99.90;;;;;;5018648;28;20195;-49
2023/08/12 04:55:28;;;;;;;7.10;6.63;;;18.80;99.90;;;;;;5016696;28;20273;-50
2023/08/12 04:57:58;;;;;;;7.40;6.80;;;18.80;99.90;;;;;;5026756;28;20199;-50
2023/08/12 05:00:25;;;;;;;6.63;6.27;;;18.80;99.90;;;;;;5019938;28;20219;-50
2023/08/12 05:02:52;;;;;;;8.13;7.43;;;18.80;99.90;;;;;;5013293;28;20199;-49
2023/08/12 05:05:21;;;;;;;10.07;7.47;;;18.80;99.90;;;;;;5019861;28;20198;-50
2023/08/12 05:07:48;;;;;;;7.40;6.73;;;18.90;99.90;;;;;;5021731;28;20918;-50
2023/08/12 05:10:16;;;;;;;8.13;7.53;;;19.00;99.90;;;;;;5029004;28;20309;-50
2023/08/12 05:12:43;;;;;;;6.90;6.40;;;19.10;99.90;;;;;;5015850;28;20230;-50
2023/08/12 05:15:11;;;;;;;6.43;6.13;;;19.20;99.90;;;;;;5011118;28;20249;-49
2023/08/12 05:17:38;;;;;;;7.33;6.73;;;19.50;99.90;;;;;;5021700;28;20199;-49
2023/08/12 05:20:06;;;;;;;7.93;7.27;;;20.50;99.90;;;;;;5022367;28;20692;-49
2023/08/12 05:22:35;;;;;;;8.30;7.70;;;21.30;99.90;;;;;;5016136;28;20628;-49
2023/08/12 05:25:02;;;;;;;6.90;6.43;;;22.00;99.90;;;;;;5023456;28;20202;-49
2023/08/12 05:27:29;;;;;;;6.17;5.77;;;22.00;99.90;;;;;;5029101;28;20268;-49
2023/08/12 05:29:56;;;;;;;5.93;5.53;;;22.00;99.90;;;;;;5023725;28;20265;-49
2023/08/12 05:32:22;;;;;;;5.83;5.40;;;22.20;99.90;;;;;;5021543;28;20589;-49
2023/08/12 05:34:51;;;;;;;11.47;7.50;;;23.10;99.90;;;;;;5018391;28;20281;-49
2023/08/12 05:37:18;;;;;;;6.30;5.30;;;24.20;99.90;;;;;;5025338;28;20286;-50
2023/08/12 05:39:46;;;;;;;6.00;5.47;;;25.20;99.90;;;;;;5021692;28;20214;-49
2023/08/12 05:42:13;;;;;;;5.50;4.93;;;26.30;99.90;;;;;;5022593;28;20190;-49
2023/08/12 05:44:42;;;;;;;5.20;4.97;;;27.00;99.90;;;;;;5030372;28;20664;-50
2023/08/12 05:47:09;;;;;;;5.33;5.00;;;27.10;99.90;;;;;;5019292;28;20265;-49
2023/08/12 05:49:36;;;;;;;5.00;4.80;;;26.20;99.90;;;;;;5011472;28;20231;-50
2023/08/12 05:52:03;;;;;;;6.43;4.93;;;25.10;99.90;;;;;;5027375;28;20230;-50
2023/08/12 05:54:30;;;;;;;5.20;4.90;;;24.50;99.90;;;;;;5022232;28;20198;-50
2023/08/12 05:56:59;;;;;;;4.80;4.40;;;23.80;99.90;;;;;;5031069;28;20252;-50
2023/08/12 05:59:27;;;;;;;4.37;4.17;;;23.40;99.90;;;;;;5030595;28;20287;-50
2023/08/12 06:01:55;;;;;;;4.93;4.63;;;22.90;99.90;;;;;;5018623;28;20206;-50
2023/08/12 06:04:22;;;;;;;4.67;4.33;;;22.60;99.90;;;;;;5022307;28;20225;-49
2023/08/12 06:06:49;;;;;;;5.93;4.63;;;22.40;99.90;;;;;;5030718;28;20695;-49
2023/08/12 06:09:16;;;;;;;4.50;4.27;;;22.40;99.90;;;;;;5030458;28;20222;-50
2023/08/12 06:11:43;;;;;;;5.20;4.73;;;22.50;99.90;;;;;;5017802;28;20214;-50
2023/08/12 06:14:11;;;;;;;4.77;4.47;;;22.60;99.90;;;;;;5030751;28;20265;-50
2023/08/12 06:16:38;;;;;;;4.37;3.93;;;22.80;99.90;;;;;;5022332;28;20276;-50
2023/08/12 06:19:05;;;;;;;5.53;4.47;;;23.60;99.90;;;;;;5021895;28;20278;-50
2023/08/12 06:21:32;;;;;;;5.07;4.73;;;25.30;99.90;;;;;;5022003;28;20269;-50
2023/08/12 06:23:59;;;;;;;4.07;3.67;;;27.00;99.90;;;;;;5031030;28;20272;-50
2023/08/12 06:26:26;;;;;;;3.60;3.30;;;28.50;99.90;;;;;;5027210;28;20260;-50
2023/08/12 06:28:53;;;;;;;4.45;3.78;;;29.90;99.90;;;;;;5031107;28;20277;-50
2023/08/12 06:31:21;;;;;;;2.83;2.65;;;30.80;99.90;;;;;;5019443;28;20223;-50
2023/08/12 06:33:48;;;;;;;3.05;2.90;;;31.30;99.90;;;;;;5029295;28;20252;-49
2023/08/12 06:36:15;;;;;;;3.03;2.92;;;30.60;99.90;;;;;;5031722;28;20195;-51
2023/08/12 06:38:42;;;;;;;2.78;2.67;;;29.60;99.90;;;;;;5013211;28;20250;-50
2023/08/12 06:41:09;;;;;;;2.55;2.45;;;28.60;99.90;;;;;;5013476;28;20733;-50
2023/08/12 06:43:36;;;;;;;2.65;2.45;;;27.90;99.90;;;;;;5026946;28;20253;-50
2023/08/12 06:46:03;;;;;;;3.03;2.92;;;27.80;99.90;;;;;;5027901;28;20274;-50
2023/08/12 06:48:31;;;;;;;3.03;2.83;;;28.50;99.90;;;;;;5024260;28;20270;-50
2023/08/12 06:50:58;;;;;;;3.40;2.90;;;29.60;99.90;;;;;;5030580;28;20696;-50
2023/08/12 06:53:27;;;;;;;2.78;2.58;;;29.50;99.90;;;;;;5030934;28;20206;-50
2023/08/12 06:55:54;;;;;;;2.45;2.35;;;29.10;99.90;;;;;;5031491;28;20195;-50
2023/08/12 06:58:21;;;;;;;3.40;3.20;;;28.30;99.90;;;;;;5031521;28;20198;-50
2023/08/12 07:00:48;;;;;;;3.22;2.88;;;27.60;99.90;;;;;;5026909;28;20305;-50
2023/08/12 07:03:15;;;;;;;3.50;2.45;;;27.10;99.90;;;;;;5020247;28;20657;-50
2023/08/12 07:05:43;;;;;;;2.83;2.72;;;26.70;99.90;;;;;;5026572;28;20248;-50
2023/08/12 07:08:10;;;;;;;3.28;2.47;;;26.30;99.90;;;;;;5024237;28;20203;-49
2023/08/12 07:10:39;;;;;;;3.40;3.10;;;26.00;99.90;;;;;;5023147;28;20254;-50
2023/08/12 07:13:06;;;;;;;2.72;2.63;;;26.10;99.90;;;;;;5018338;28;20274;-50
2023/08/12 07:15:33;;;;;;;5.20;2.47;;;26.30;99.90;;;;;;5012593;28;20661;-50
2023/08/12 07:18:03;;;;;;;4.35;3.38;;;27.10;99.90;;;;;;5024116;28;20202;-50
2023/08/12 07:20:30;;;;;;;2.58;2.58;;;27.90;99.90;;;;;;5030897;28;20254;-51
2023/08/12 07:22:58;;;;;;;3.08;2.72;;;28.00;99.90;;;;;;5031029;28;20190;-51
2023/08/12 07:25:25;;;;;;;3.50;3.33;;;28.00;99.90;;;;;;5018115;28;20575;-51
2023/08/12 07:27:52;;;;;;;3.22;3.13;;;27.70;99.90;;;;;;5016922;28;20650;-50
2023/08/12 07:30:19;;;;;;;3.08;2.90;;;27.70;99.90;;;;;;5020403;28;20591;-50
2023/08/12 07:32:46;;;;;;;2.92;2.80;;;27.60;99.90;;;;;;5015668;28;20199;-51
2023/08/12 07:35:13;;;;;;;3.50;3.10;;;27.60;99.90;;;;;;5012479;28;20191;-50
2023/08/12 07:37:40;;;;;;;2.85;2.65;;;27.70;99.90;;;;;;5012538;28;20203;-51
2023/08/12 07:40:10;;;;;;;5.82;3.50;;;27.30;99.90;;;;;;5012179;28;20215;-51
2023/08/12 07:42:37;;;;;;;3.80;3.60;;;27.20;99.90;;;;;;5012027;28;20254;-50
2023/08/12 07:45:05;;;;;;;2.28;2.17;;;27.10;99.90;;;;;;5015826;28;20257;-51
2023/08/12 07:47:32;;;;;;;3.40;3.17;;;26.90;99.90;;;;;;5012132;28;20697;-50
2023/08/12 07:49:59;;;;;;;2.90;2.80;;;26.90;99.90;;;;;;5012027;28;20219;-51
2023/08/12 07:52:26;;;;;;;3.28;3.08;;;26.80;99.90;;;;;;5011786;28;20253;-51
2023/08/12 07:54:53;;;;;;;3.22;3.13;;;26.90;99.90;;;;;;5012247;28;20290;-51
2023/08/12 07:57:23;;;;;;;5.18;4.28;;;27.00;99.90;;;;;;5011902;28;20203;-51
2023/08/12 07:59:50;;;;;;;4.05;2.88;;;27.20;99.90;;;;;;5012010;28;20215;-51
2023/08/12 08:02:17;;;;;;;4.47;4.18;;;27.40;99.90;;;;;;5019547;28;20199;-51
2023/08/12 08:04:48;;;;;;;3.17;2.90;;;27.60;99.90;;;;;;5014104;28;20199;-51
2023/08/12 08:07:16;;;;;;;2.50;2.33;;;27.90;99.90;;;;;;5017333;28;20199;-51
2023/08/12 08:09:43;;;;;;;2.53;2.42;;;28.10;99.90;;;;;;5017262;28;20322;-51
2023/08/12 08:12:11;;;;;;;3.13;2.90;;;28.20;99.90;;;;;;5011227;28;20290;-50
2023/08/12 08:14:39;;;;;;;3.53;3.20;;;28.20;99.90;;;;;;5011731;28;20191;-51
2023/08/12 08:17:07;;;;;;;3.10;2.97;;;28.50;99.90;;;;;;5011382;28;20196;-50
2023/08/12 08:19:33;;;;;;;3.63;3.30;;;29.60;99.90;;;;;;5024370;28;20644;-51
2023/08/12 08:22:00;;;;;;;2.72;2.63;;;30.70;99.90;;;;;;5017672;28;20461;-51
2023/08/12 08:24:28;;;;;;;5.25;2.72;;;31.40;99.90;;;;;;5019499;28;20253;-51
2023/08/12 08:26:55;;;;;;;3.35;3.25;;;31.50;99.90;;;;;;5011517;28;20199;-51
2023/08/12 08:29:22;;;;;;;3.13;3.03;;;32.30;99.90;;;;;;5026196;28;20237;-51
2023/08/12 08:31:51;;;;;;;6.13;4.25;;;33.30;99.90;;;;;;5029607;28;20240;-51
2023/08/12 08:34:18;;;;;;;3.53;2.88;;;34.00;99.90;;;;;;5029321;28;20199;-51
2023/08/12 08:36:45;;;;;;;4.13;3.67;;;34.60;99.90;;;;;;5017145;28;20203;-51
2023/08/12 08:39:12;;;;;;;5.03;4.68;;;34.70;99.90;;;;;;5011134;28;20226;-51
2023/08/12 08:41:40;;;;;;;5.85;5.55;;;34.40;99.90;;;;;;5023964;28;20203;-51
2023/08/12 08:44:09;;;;;;;6.50;5.90;;;34.00;99.90;;;;;;5014661;28;20264;-51
2023/08/12 08:46:36;;;;;;;7.82;7.05;;;33.60;99.90;;;;;;5021158;22;20651;-54
2023/08/12 08:49:06;;;;;;;5.38;4.93;;;32.40;99.90;;;;;;4984006;28;20258;-55
2023/08/12 08:51:33;;;;;;;5.50;5.20;;;31.60;99.90;;;;;;4992790;28;20306;-54
2023/08/12 08:54:07;;;;;;;6.60;6.13;;;30.70;99.90;;;;;;4990758;28;20286;-54
2023/08/12 08:56:34;;;;;;;6.32;5.88;;;29.90;99.90;;;;;;4989982;28;20625;-55
2023/08/12 08:59:01;;;;;;;6.38;5.97;;;29.50;99.90;;;;;;4985838;28;20251;-54
2023/08/12 09:01:29;;;;;;;5.90;5.50;;;29.40;99.90;;;;;;4988125;28;20251;-54
2023/08/12 09:03:58;;;;;;;6.57;6.10;;;30.20;99.90;;;;;;4986690;28;20283;-54
2023/08/12 09:06:27;;;;;;;7.47;5.75;;;30.80;99.90;;;;;;4985995;28;20228;-54
2023/08/12 09:08:54;;;;;;;6.10;5.70;;;30.60;99.90;;;;;;4988658;28;21031;-54
2023/08/12 09:11:22;;;;;;;6.43;5.97;;;30.50;99.90;;;;;;4989994;28;20694;-55
2023/08/12 09:13:49;;;;;;;7.53;6.88;;;30.30;99.90;;;;;;4988590;28;20294;-55
2023/08/12 09:16:16;;;;;;;6.10;5.70;;;29.90;99.90;;;;;;4979169;28;20247;-54
2023/08/12 09:18:44;;;;;;;5.60;5.07;;;29.70;99.90;;;;;;4989625;28;20829;-54
2023/08/12 09:21:11;;;;;;;7.13;6.40;;;29.50;99.90;;;;;;4988522;28;20283;-54
2023/08/12 09:23:41;;;;;;;4.57;4.38;;;29.20;99.90;;;;;;4987504;28;20207;-55
2023/08/12 09:26:16;;;;;;;7.55;5.88;;;29.00;99.90;;;;;;4986224;28;20219;-55
2023/08/12 09:28:43;;;;;;;7.65;7.07;;;29.00;99.90;;;;;;4989555;28;20740;-54
2023/08/12 09:31:24;;;;;;;6.25;5.95;;;28.70;99.90;;;;;;4981357;28;20216;-55
2023/08/12 09:33:51;;;;;;;5.63;5.43;;;28.60;99.90;;;;;;4975588;28;20201;-54
2023/08/12 09:36:18;;;;;;;7.03;6.45;;;28.50;99.90;;;;;;4972656;28;20275;-55
2023/08/12 09:38:47;;;;;;;8.38;6.35;;;28.30;99.90;;;;;;4989926;28;20295;-53
2023/08/12 09:41:15;;;;;;;6.88;6.28;;;28.20;99.90;;;;;;4989488;28;20243;-54
2023/08/12 09:43:42;;;;;;;6.15;5.85;;;28.10;99.90;;;;;;4989304;28;20286;-54
2023/08/12 09:46:13;;;;;;;5.63;5.38;;;28.10;99.90;;;;;;4989563;28;20805;-54
2023/08/12 09:48:40;;;;;;;6.40;5.97;;;28.00;99.90;;;;;;4980593;28;20750;-54
2023/08/12 09:51:07;;;;;;;6.43;5.97;;;28.00;99.90;;;;;;4971989;28;20209;-54
2023/08/12 09:53:34;;;;;;;8.52;7.18;;;27.90;99.90;;;;;;4992440;28;20196;-53
2023/08/12 09:56:07;;;;;;;7.57;6.85;;;27.90;99.90;;;;;;4993368;28;20271;-53
2023/08/12 09:58:36;;;;;;;6.25;5.85;;;28.00;99.90;;;;;;4980338;28;20231;-54
2023/08/12 10:01:04;;;;;;;7.47;6.90;;;28.10;99.90;;;;;;4984893;28;20201;-55
2023/08/12 10:03:33;;;;;;;7.43;6.40;;;28.40;99.90;;;;;;4984731;28;20204;-55
2023/08/12 10:06:02;;;;;;;6.47;5.78;;;28.60;99.90;;;;;;4986768;28;20231;-54
2023/08/12 10:08:30;;;;;;;6.60;6.20;;;29.10;99.90;;;;;;4980228;28;20227;-55
2023/08/12 10:10:57;;;;;;;6.95;6.53;;;30.20;99.90;;;;;;4981264;28;20337;-54
2023/08/12 10:13:26;;;;;;;7.40;6.78;;;30.80;99.90;;;;;;4985790;28;20208;-62
2023/08/12 10:15:54;;;;;;;6.75;6.35;;;31.60;99.90;;;;;;4993347;28;20224;-62
2023/08/12 10:18:23;;;;;;;7.07;6.65;;;31.20;99.90;;;;;;4984396;28;20208;-61
2023/08/12 10:20:51;;;;;;;6.22;5.88;;;31.40;99.90;;;;;;4975028;28;20224;-64
2023/08/12 10:23:18;;;;;;;7.10;6.68;;;32.00;99.90;;;;;;4975077;28;20198;-63
2023/08/12 10:25:46;;;;;;;7.55;6.95;;;32.50;99.90;;;;;;4985563;28;20216;-56
2023/08/12 10:28:13;;;;;;;6.53;6.10;;;33.00;99.90;;;;;;4990197;28;20204;-57
2023/08/12 10:30:42;;;;;;;7.60;7.00;;;33.20;99.90;;;;;;4986243;28;20220;-56
2023/08/12 10:33:10;;;;;;;7.22;6.72;;;32.70;99.90;;;;;;4980635;28;20235;-56
2023/08/12 10:35:48;;;;;;;6.20;5.93;;;32.30;99.90;;;;;;4983935;28;20221;-56
2023/08/12 10:38:18;;;;;;;6.32;5.82;;;31.30;99.90;;;;;;4988228;28;20195;-57
2023/08/12 10:40:45;;;;;;;6.90;6.32;;;31.00;99.90;;;;;;4982319;28;20208;-56
2023/08/12 10:43:14;;;;;;;7.40;6.70;;;30.50;99.90;;;;;;4985525;28;20666;-54
2023/08/12 10:45:49;;;;;;;7.55;6.90;;;30.60;99.90;;;;;;4980540;28;20232;-56
2023/08/12 10:48:22;;;;;;;7.35;6.95;;;30.60;99.90;;;;;;4987492;28;20302;-56
2023/08/12 10:50:52;;;;;;;6.13;5.82;;;30.90;99.90;;;;;;4983504;28;20251;-56
2023/08/12 10:53:29;;;;;;;5.88;5.57;;;31.30;99.90;;;;;;4985105;28;20208;-56
2023/08/12 10:55:58;;;;;;;5.28;5.07;;;31.40;99.90;;;;;;4984349;28;20223;-55
2023/08/12 10:58:27;;;;;;;6.03;5.70;;;30.90;99.90;;;;;;4984676;28;20208;-56
2023/08/12 11:00:57;;;;;;;5.22;4.93;;;31.10;99.90;;;;;;4983039;28;20262;-57
2023/08/12 11:03:24;;;;;;;5.68;5.18;;;31.40;99.90;;;;;;4983691;28;20629;-55
2023/08/12 11:05:55;;;;;;;6.15;5.65;;;31.90;99.90;;;;;;4983809;28;20286;-56
2023/08/12 11:08:26;;;;;;;5.63;5.22;;;32.00;99.90;;;;;;4984794;28;20737;-56
2023/08/12 11:10:55;;;;;;;5.75;5.45;;;32.00;99.90;;;;;;4985303;28;20227;-55
2023/08/12 11:13:24;;;;;;;6.55;5.95;;;31.50;99.90;;;;;;4984657;28;20200;-56
2023/08/12 11:15:51;;;;;;;5.32;4.90;;;30.90;99.90;;;;;;4985498;28;20235;-55
2023/08/12 11:18:20;;;;;;;5.47;5.05;;;30.60;99.90;;;;;;4983798;28;20275;-55
2023/08/12 11:20:49;;;;;;;4.90;4.70;;;30.40;99.90;;;;;;4976683;28;20201;-56
2023/08/12 11:23:17;;;;;;;4.93;4.72;;;30.30;99.90;;;;;;4991413;28;20196;-56
2023/08/12 11:25:45;;;;;;;6.85;5.22;;;30.20;99.90;;;;;;4991170;28;20286;-55
2023/08/12 11:28:13;;;;;;;6.43;5.88;;;30.10;99.90;;;;;;4991762;28;20282;-56
2023/08/12 11:30:43;;;;;;;5.45;5.05;;;30.50;99.90;;;;;;4979744;28;20671;-55
2023/08/12 11:33:10;;;;;;;5.60;5.28;;;30.60;99.90;;;;;;4978436;28;20813;-57
2023/08/12 11:35:39;;;;;;;5.28;5.07;;;30.40;99.90;;;;;;4986001;28;20566;-56
2023/08/12 11:38:08;;;;;;;5.95;5.55;;;30.00;99.90;;;;;;4975848;28;20204;-55
2023/08/12 11:40:35;;;;;;;5.40;5.18;;;29.60;99.90;;;;;;4991384;28;20203;-56
2023/08/12 11:43:04;;;;;;;5.03;4.78;;;29.40;99.90;;;;;;4986852;28;20200;-55
2023/08/12 11:45:31;;;;;;;5.10;4.72;;;29.30;99.90;;;;;;4977136;28;20232;-56
2023/08/12 11:47:58;;;;;;;4.63;4.43;;;29.20;99.90;;;;;;4979721;28;20239;-55
2023/08/12 11:50:29;;;;;;;5.43;5.03;;;29.10;99.90;;;;;;4977789;28;20209;-55
2023/08/12 11:53:01;;;;;;;5.55;5.07;;;29.00;99.90;;;;;;4977126;28;20223;-56
2023/08/12 11:55:28;;;;;;;5.60;5.30;;;28.90;99.90;;;;;;4977539;28;20767;-55
2023/08/12 11:57:58;;;;;;;7.80;6.68;;;28.80;99.90;;;;;;4976129;28;20232;-55
2023/08/12 12:00:26;;;;;;;6.95;6.32;;;28.50;99.90;;;;;;4988303;28;20207;-63
2023/08/12 12:02:55;;;;;;;5.53;5.22;;;28.20;99.90;;;;;;4988489;28;20192;-62
2023/08/12 12:05:24;;;;;;;6.55;6.05;;;28.20;99.90;;;;;;4972338;28;20679;-63
2023/08/12 12:07:51;;;;;;;5.00;4.70;;;28.20;99.90;;;;;;4991145;28;20251;-64
2023/08/12 12:10:22;;;;;;;4.43;4.07;;;28.40;99.90;;;;;;4991108;28;20282;-65
2023/08/12 12:12:49;;;;;;;4.90;4.63;;;28.60;99.90;;;;;;4989493;28;20227;-65
2023/08/12 12:15:16;;;;;;;4.78;4.28;;;28.70;99.90;;;;;;4981150;28;20197;-65
2023/08/12 12:17:46;;;;;;;3.97;3.67;;;28.80;99.90;;;;;;4982554;28;20254;-64
2023/08/12 12:20:14;;;;;;;4.40;4.10;;;28.70;99.90;;;;;;4990594;28;20254;-62
2023/08/12 12:22:45;;;;;;;6.25;4.10;;;28.50;99.90;;;;;;4985859;28;20223;-63
2023/08/12 12:25:13;;;;;;;3.67;3.40;;;28.30;99.90;;;;;;4983472;28;20208;-65
2023/08/12 12:27:43;;;;;;;4.18;3.78;;;28.20;99.90;;;;;;4982986;28;20686;-66
2023/08/12 12:30:12;;;;;;;3.63;3.38;;;28.00;99.90;;;;;;4984191;28;20204;-68
2023/08/12 12:32:40;;;;;;;3.22;3.13;;;27.90;99.90;;;;;;4984761;28;20266;-64
2023/08/12 12:35:08;;;;;;;4.45;4.18;;;27.90;99.90;;;;;;4985576;28;20228;-66
2023/08/12 12:37:36;;;;;;;4.75;4.38;;;28.00;99.90;;;;;;4984108;28;20200;-67
2023/08/12 12:40:03;;;;;;;3.63;3.35;;;28.10;99.90;;;;;;4983276;28;20208;-68
2023/08/12 12:42:30;;;;;;;4.03;3.75;;;27.90;99.90;;;;;;4982765;28;20224;-67
2023/08/12 12:44:58;;;;;;;3.63;3.33;;;28.10;99.90;;;;;;4981410;28;20199;-68
2023/08/12 12:47:25;;;;;;;4.00;3.22;;;28.20;99.90;;;;;;4981270;28;20713;-69
2023/08/12 12:49:53;;;;;;;3.20;3.03;;;28.30;99.90;;;;;;4981167;28;20223;-65
2023/08/12 12:52:20;;;;;;;4.00;3.70;;;28.50;99.90;;;;;;4982389;28;20326;-67